createdAt,value
2023-09-17T00:01:55.381Z,101748.31
2023-09-17T00:04:22.531Z,101743.78
2023-09-17T00:06:49.511Z,101743.00
2023-09-17T00:09:16.519Z,101742.06
2023-09-17T00:11:43.601Z,101747.38
2023-09-17T00:14:10.832Z,101744.78
2023-09-17T00:16:40.074Z,101738.66
2023-09-17T00:19:08.118Z,101741.34
2023-09-17T00:21:35.145Z,101737.06
2023-09-17T00:24:02.309Z,101747.53
2023-09-17T00:26:29.259Z,101741.44
2023-09-17T00:28:56.195Z,101740.56
2023-09-17T00:31:23.382Z,101738.00
2023-09-17T00:33:50.570Z,101733.63
2023-09-17T00:36:17.583Z,101739.81
2023-09-17T00:38:44.510Z,101732.69
2023-09-17T00:41:11.529Z,101731.03
2023-09-17T00:43:38.519Z,101731.13
2023-09-17T00:46:06.213Z,101723.25
2023-09-17T00:48:33.422Z,101713.44
2023-09-17T00:51:00.778Z,101717.06
2023-09-17T00:53:28.288Z,101711.75
2023-09-17T00:55:56.128Z,101709.09
2023-09-17T00:58:24.145Z,101705.66
2023-09-17T01:00:52.098Z,101699.53
2023-09-17T01:03:19.356Z,101703.06
2023-09-17T01:05:47.291Z,101703.06
2023-09-17T01:08:14.634Z,101712.00
2023-09-17T01:10:42.085Z,101710.31
2023-09-17T01:13:10.520Z,101715.72
2023-09-17T01:15:38.189Z,101719.22
2023-09-17T01:18:07.142Z,101709.53
2023-09-17T01:20:42.621Z,101715.72
2023-09-17T01:23:38.493Z,101713.97
2023-09-17T01:26:14.884Z,101708.66
2023-09-17T01:28:42.311Z,101709.63
2023-09-17T01:31:10.753Z,101708.75
2023-09-17T01:33:37.853Z,101706.97
2023-09-17T01:36:10.431Z,101703.53
2023-09-17T01:38:47.710Z,101700.94
2023-09-17T01:41:17.093Z,101683.47
2023-09-17T01:43:46.071Z,101688.69
2023-09-17T01:46:13.512Z,101679.84
2023-09-17T01:48:44.087Z,101672.84
2023-09-17T01:51:12.972Z,101667.53
2023-09-17T01:53:40.323Z,101666.66
2023-09-17T01:56:07.304Z,101671.03
2023-09-17T01:58:35.401Z,101658.75
2023-09-17T02:01:02.678Z,101657.94
2023-09-17T02:03:30.589Z,101654.41
2023-09-17T02:05:57.971Z,101653.63
2023-09-17T02:08:25.099Z,101652.69
2023-09-17T02:10:52.151Z,101647.47
2023-09-17T02:13:19.119Z,101644.00
2023-09-17T02:15:46.760Z,101656.44
2023-09-17T02:18:13.971Z,101648.63
2023-09-17T02:20:41.535Z,101632.69
2023-09-17T02:23:10.850Z,101641.56
2023-09-17T02:25:37.872Z,101642.44
2023-09-17T02:28:05.356Z,101641.56
2023-09-17T02:30:32.573Z,101634.56
2023-09-17T02:32:59.759Z,101637.28
2023-09-17T02:35:26.866Z,101634.72
2023-09-17T02:37:53.967Z,101636.41
2023-09-17T02:40:22.653Z,101636.41
2023-09-17T02:42:51.195Z,101629.47
2023-09-17T02:45:20.309Z,101630.34
2023-09-17T02:47:47.575Z,101629.25
2023-09-17T02:50:14.653Z,101631.09
2023-09-17T02:52:41.748Z,101622.28
2023-09-17T02:55:09.931Z,101618.78
2023-09-17T02:57:37.251Z,101624.25
2023-09-17T03:00:10.673Z,101616.34
2023-09-17T03:02:40.593Z,101608.47
2023-09-17T03:05:12.193Z,101608.47
2023-09-17T03:07:44.932Z,101605.91
2023-09-17T03:10:13.236Z,101597.00
2023-09-17T03:12:40.448Z,101598.00
2023-09-17T03:15:08.455Z,101590.03
2023-09-17T03:17:39.011Z,101583.81
2023-09-17T03:20:15.575Z,101590.81
2023-09-17T03:22:42.788Z,101582.94
2023-09-17T03:25:10.074Z,101572.44
2023-09-17T03:27:37.115Z,101575.19
2023-09-17T03:30:07.531Z,101570.91
2023-09-17T03:32:34.698Z,101566.44
2023-09-17T03:35:02.625Z,101567.28
2023-09-17T03:37:29.659Z,101565.66
2023-09-17T03:40:26.239Z,101560.34
2023-09-17T03:42:53.755Z,101562.94
2023-09-17T03:45:21.157Z,101561.31
2023-09-17T03:47:49.031Z,101562.06
2023-09-17T03:50:21.577Z,101553.25
2023-09-17T03:52:53.285Z,101552.38
2023-09-17T03:55:21.383Z,101552.38
2023-09-17T03:57:49.547Z,101548.97
2023-09-17T04:00:17.356Z,101551.47
2023-09-17T04:02:45.532Z,101549.72
2023-09-17T04:05:15.239Z,101547.94
2023-09-17T04:07:45.437Z,101546.22
2023-09-17T04:10:13.614Z,101545.38
2023-09-17T04:12:42.063Z,101541.78
2023-09-17T04:15:29.398Z,101543.72
2023-09-17T04:17:56.521Z,101546.31
2023-09-17T04:20:25.545Z,101536.63
2023-09-17T04:22:52.534Z,101546.38
2023-09-17T04:25:21.937Z,101537.63
2023-09-17T04:27:49.951Z,101533.03
2023-09-17T04:30:18.240Z,101533.03
2023-09-17T04:32:47.454Z,101533.03
2023-09-17T04:35:19.200Z,101520.63
2023-09-17T04:37:48.376Z,101517.81
2023-09-17T04:40:15.761Z,101518.53
2023-09-17T04:42:47.558Z,101514.72
2023-09-17T04:45:49.467Z,101523.50
2023-09-17T04:48:17.755Z,101518.03
2023-09-17T04:50:48.085Z,101515.25
2023-09-17T04:53:16.353Z,101523.81
2023-09-17T04:55:43.382Z,101522.84
2023-09-17T04:58:10.375Z,101520.31
2023-09-17T05:00:38.421Z,101523.56
2023-09-17T05:03:05.623Z,101524.47
2023-09-17T05:05:32.718Z,101518.16
2023-09-17T05:07:59.697Z,101510.19
2023-09-17T05:10:27.486Z,101514.47
2023-09-17T05:12:54.672Z,101504.81
2023-09-17T05:15:22.707Z,101499.56
2023-09-17T05:17:50.625Z,101496.09
2023-09-17T05:20:19.797Z,101502.16
2023-09-17T05:22:46.797Z,101504.88
2023-09-17T05:25:13.815Z,101504.88
2023-09-17T05:27:40.801Z,101506.63
2023-09-17T05:30:08.355Z,101508.34
2023-09-17T05:32:35.714Z,101499.66
2023-09-17T05:35:04.788Z,101500.59
2023-09-17T05:37:32.602Z,101500.75
2023-09-17T05:40:00.194Z,101499.06
2023-09-17T05:42:27.823Z,101498.25
2023-09-17T05:44:54.835Z,101494.63
2023-09-17T05:47:22.482Z,101494.56
2023-09-17T05:49:49.600Z,101500.75
2023-09-17T05:52:17.813Z,101494.72
2023-09-17T05:54:44.803Z,101500.09
2023-09-17T05:57:12.734Z,101491.31
2023-09-17T05:59:39.813Z,101483.41
2023-09-17T06:02:07.711Z,101487.78
2023-09-17T06:04:34.676Z,101486.06
2023-09-17T06:07:01.736Z,101483.41
2023-09-17T06:09:28.883Z,101486.91
2023-09-17T06:11:55.937Z,101482.63
2023-09-17T06:14:23.039Z,101477.16
2023-09-17T06:16:57.265Z,101477.63
2023-09-17T06:19:24.912Z,101477.78
2023-09-17T06:21:52.192Z,101469.81
2023-09-17T06:24:19.199Z,101471.47
2023-09-17T06:26:46.286Z,101463.59
2023-09-17T06:29:13.445Z,101467.97
2023-09-17T06:31:41.701Z,101455.47
2023-09-17T06:34:09.392Z,101454.63
2023-09-17T06:36:38.671Z,101460.63
2023-09-17T06:39:08.232Z,101457.97
2023-09-17T06:41:38.277Z,101457.03
2023-09-17T06:44:06.188Z,101457.03
2023-09-17T06:46:36.596Z,101458.75
2023-09-17T06:49:04.032Z,101461.31
2023-09-17T06:51:31.494Z,101458.66
2023-09-17T06:53:59.199Z,101460.47
2023-09-17T06:56:26.722Z,101456.88
2023-09-17T06:58:54.343Z,101451.56
2023-09-17T07:01:22.211Z,101448.91
2023-09-17T07:03:49.982Z,101447.84
2023-09-17T07:06:17.900Z,101456.28
2023-09-17T07:08:45.239Z,101442.94
2023-09-17T07:11:12.712Z,101438.31
2023-09-17T07:13:41.349Z,101427.88
2023-09-17T07:16:08.865Z,101438.63
2023-09-17T07:18:36.019Z,101440.53
2023-09-17T07:21:03.237Z,101445.66
2023-09-17T07:23:31.382Z,101447.13
2023-09-17T07:25:58.700Z,101444.41
2023-09-17T07:28:27.440Z,101436.44
2023-09-17T07:30:57.020Z,101438.94
2023-09-17T07:33:24.873Z,101438.78
2023-09-17T07:35:52.195Z,101443.84
2023-09-17T07:38:19.529Z,101439.38
2023-09-17T07:40:48.553Z,101428.78
2023-09-17T07:43:15.671Z,101428.50
2023-09-17T07:45:42.723Z,101426.72
2023-09-17T07:48:09.875Z,101430.16
2023-09-17T07:50:36.882Z,101427.34
2023-09-17T07:53:03.972Z,101420.22
2023-09-17T07:55:31.565Z,101422.03
2023-09-17T07:57:58.864Z,101419.38
2023-09-17T08:00:26.677Z,101421.94
2023-09-17T08:02:53.869Z,101420.91
2023-09-17T08:05:21.199Z,101420.91
2023-09-17T08:07:48.517Z,101422.63
2023-09-17T08:10:15.759Z,101425.13
2023-09-17T08:12:42.854Z,101426.91
2023-09-17T08:15:10.236Z,101427.00
2023-09-17T08:17:38.328Z,101419.81
2023-09-17T08:20:08.764Z,101421.53
2023-09-17T08:22:35.930Z,101421.34
2023-09-17T08:25:03.176Z,101420.41
2023-09-17T08:27:30.123Z,101422.31
2023-09-17T08:29:57.213Z,101413.38
2023-09-17T08:32:24.162Z,101412.63
2023-09-17T08:34:51.200Z,101409.78
2023-09-17T08:37:19.019Z,101395.66
2023-09-17T08:39:46.067Z,101389.47
2023-09-17T08:42:14.241Z,101386.81
2023-09-17T08:44:43.591Z,101388.72
2023-09-17T08:47:10.581Z,101387.03
2023-09-17T08:49:37.790Z,101380.84
2023-09-17T08:52:08.221Z,101376.41
2023-09-17T08:54:42.265Z,101372.03
2023-09-17T08:57:12.120Z,101363.19
2023-09-17T08:59:44.766Z,101365.94
2023-09-17T09:02:24.946Z,101363.34
2023-09-17T09:04:52.786Z,101361.66
2023-09-17T09:07:23.786Z,101362.50
2023-09-17T09:09:52.993Z,101359.94
2023-09-17T09:12:20.564Z,101354.53
2023-09-17T09:14:48.744Z,101354.47
2023-09-17T09:17:15.938Z,101344.69
2023-09-17T09:19:43.162Z,101346.41
2023-09-17T09:22:10.606Z,101348.81
2023-09-17T09:24:48.616Z,101355.59
2023-09-17T09:27:15.973Z,101358.25
2023-09-17T09:29:45.990Z,101357.56
2023-09-17T09:32:14.687Z,101358.75
2023-09-17T09:34:43.632Z,101367.81
2023-09-17T09:37:11.413Z,101351.88
2023-09-17T09:39:39.263Z,101349.31
2023-09-17T09:42:07.322Z,101341.50
2023-09-17T09:44:36.461Z,101343.25
2023-09-17T09:47:04.469Z,101339.72
2023-09-17T09:49:41.291Z,101330.84
2023-09-17T09:52:08.662Z,101323.47
2023-09-17T09:54:39.287Z,101321.56
2023-09-17T09:57:06.713Z,101314.53
2023-09-17T09:59:38.208Z,101310.69
2023-09-17T10:02:06.575Z,101313.34
2023-09-17T10:04:39.351Z,101311.13
2023-09-17T10:07:07.100Z,101304.59
2023-09-17T10:09:34.858Z,101304.44
2023-09-17T10:12:01.948Z,101300.75
2023-09-17T10:14:29.180Z,101304.56
2023-09-17T10:16:57.202Z,101293.78
2023-09-17T10:19:27.427Z,101295.22
2023-09-17T10:21:57.374Z,101288.13
2023-09-17T10:24:25.333Z,101287.09
2023-09-17T10:26:53.164Z,101282.41
2023-09-17T10:29:22.764Z,101282.47
2023-09-17T10:31:50.574Z,101281.69
2023-09-17T10:34:19.652Z,101273.41
2023-09-17T10:36:49.116Z,101272.66
2023-09-17T10:39:16.630Z,101267.75
2023-09-17T10:41:46.492Z,101257.25
2023-09-17T10:44:16.446Z,101258.16
2023-09-17T10:46:47.030Z,101251.06
2023-09-17T10:49:15.020Z,101245.84
2023-09-17T10:51:45.589Z,101240.63
2023-09-17T10:54:12.949Z,101236.09
2023-09-17T10:56:43.225Z,101234.38
2023-09-17T10:59:14.947Z,101231.72
2023-09-17T11:01:44.647Z,101230.00
2023-09-17T11:04:17.682Z,101225.53
2023-09-17T11:06:48.226Z,101226.13
2023-09-17T11:09:16.751Z,101218.28
2023-09-17T11:11:45.200Z,101215.78
2023-09-17T11:14:14.048Z,101210.38
2023-09-17T11:16:41.609Z,101211.41
2023-09-17T11:19:14.939Z,101201.66
2023-09-17T11:21:49.219Z,101204.31
2023-09-17T11:24:19.514Z,101197.78
2023-09-17T11:26:47.714Z,101190.84
2023-09-17T11:29:16.279Z,101186.13
2023-09-17T11:31:55.902Z,101175.44
2023-09-17T11:34:23.285Z,101186.25
2023-09-17T11:36:52.013Z,101177.75
2023-09-17T11:39:22.075Z,101174.00
2023-09-17T11:42:04.508Z,101173.56
2023-09-17T11:44:35.538Z,101169.13
2023-09-17T11:47:02.972Z,101177.38
2023-09-17T11:49:30.513Z,101164.13
2023-09-17T11:51:58.875Z,101164.19
2023-09-17T11:54:32.504Z,101160.44
2023-09-17T11:56:59.700Z,101163.69
2023-09-17T11:59:28.472Z,101147.59
2023-09-17T12:01:59.086Z,101146.53
2023-09-17T12:04:29.359Z,101152.72
2023-09-17T12:07:00.038Z,101149.97
2023-09-17T12:09:41.315Z,101145.50
2023-09-17T12:12:08.859Z,101143.41
2023-09-17T12:14:37.602Z,101128.84
2023-09-17T12:17:05.506Z,101129.66
2023-09-17T12:19:33.104Z,101122.16
2023-09-17T12:22:01.491Z,101118.97
2023-09-17T12:24:36.159Z,101110.06
2023-09-17T12:27:10.064Z,101112.53
2023-09-17T12:29:38.918Z,101108.88
2023-09-17T12:32:06.893Z,101108.75
2023-09-17T12:34:37.836Z,101098.13
2023-09-17T12:37:11.128Z,101097.22
2023-09-17T12:39:38.758Z,101085.72
2023-09-17T12:42:05.821Z,101074.25
2023-09-17T12:44:33.578Z,101079.56
2023-09-17T12:47:00.894Z,101078.69
2023-09-17T12:49:28.531Z,101082.22
2023-09-17T12:51:55.868Z,101080.50
2023-09-17T12:54:24.495Z,101069.69
2023-09-17T12:56:52.456Z,101077.13
2023-09-17T12:59:36.184Z,101081.50
2023-09-17T13:02:05.337Z,101071.06
2023-09-17T13:04:44.662Z,101062.78
2023-09-17T13:07:25.005Z,101056.78
2023-09-17T13:09:57.141Z,101052.44
2023-09-17T13:12:25.724Z,101045.41
2023-09-17T13:14:53.737Z,101041.72
2023-09-17T13:17:27.273Z,101036.91
2023-09-17T13:19:55.603Z,101028.94
2023-09-17T13:22:23.987Z,101027.97
2023-09-17T13:24:51.319Z,101026.28
2023-09-17T13:27:20.173Z,101016.34
2023-09-17T13:29:55.593Z,101014.25
2023-09-17T13:32:23.160Z,101013.41
2023-09-17T13:34:51.352Z,101006.88
2023-09-17T13:37:20.073Z,101003.94
2023-09-17T13:39:51.179Z,100999.66
2023-09-17T13:42:18.534Z,101002.41
2023-09-17T13:44:46.145Z,100998.13
2023-09-17T13:47:13.600Z,100993.78
2023-09-17T13:49:43.020Z,100985.81
2023-09-17T13:52:11.366Z,100977.75
2023-09-17T13:54:40.577Z,100967.91
2023-09-17T13:57:08.150Z,100962.09
2023-09-17T13:59:35.515Z,100962.75
2023-09-17T14:02:05.748Z,100960.28
2023-09-17T14:04:34.753Z,100943.59
2023-09-17T14:07:02.703Z,100938.28
2023-09-17T14:09:30.243Z,100936.38
2023-09-17T14:11:57.301Z,100924.06
2023-09-17T14:14:25.281Z,100926.72
2023-09-17T14:16:52.574Z,100914.50
2023-09-17T14:19:20.399Z,100912.59
2023-09-17T14:21:48.945Z,100911.72
2023-09-17T14:24:16.479Z,100906.22
2023-09-17T14:26:44.511Z,100900.06
2023-09-17T14:29:11.594Z,100900.91
2023-09-17T14:31:40.918Z,100889.44
2023-09-17T14:34:10.849Z,100893.88
2023-09-17T14:36:38.793Z,100886.91
2023-09-17T14:39:06.464Z,100884.06
2023-09-17T14:41:33.683Z,100884.59
2023-09-17T14:44:00.781Z,100879.19
2023-09-17T14:46:30.789Z,100873.31
2023-09-17T14:48:57.870Z,100868.13
2023-09-17T14:51:24.983Z,100872.47
2023-09-17T14:53:52.138Z,100854.84
2023-09-17T14:56:19.568Z,100849.53
2023-09-17T14:58:47.280Z,100863.66
2023-09-17T15:01:26.756Z,100844.22
2023-09-17T15:04:02.329Z,100835.38
2023-09-17T15:06:31.171Z,100837.19
2023-09-17T15:08:58.831Z,100831.78
2023-09-17T15:11:26.292Z,100835.94
2023-09-17T15:13:53.983Z,100834.34
2023-09-17T15:16:22.202Z,100826.56
2023-09-17T15:18:52.339Z,100835.47
2023-09-17T15:21:19.976Z,100826.75
2023-09-17T15:23:47.093Z,100820.50
2023-09-17T15:26:14.169Z,100814.44
2023-09-17T15:28:44.849Z,100819.09
2023-09-17T15:31:12.165Z,100804.97
2023-09-17T15:33:40.572Z,100804.03
2023-09-17T15:36:08.548Z,100802.31
2023-09-17T15:38:35.724Z,100803.91
2023-09-17T15:41:04.973Z,100794.88
2023-09-17T15:43:36.845Z,100793.84
2023-09-17T15:46:07.152Z,100788.53
2023-09-17T15:48:36.156Z,100786.72
2023-09-17T15:51:05.194Z,100778.75
2023-09-17T15:53:33.504Z,100781.34
2023-09-17T15:56:01.107Z,100771.53
2023-09-17T15:58:28.185Z,100771.53
2023-09-17T16:00:56.555Z,100761.78
2023-09-17T16:03:23.726Z,100764.44
2023-09-17T16:05:51.551Z,100757.63
2023-09-17T16:08:18.844Z,100757.72
2023-09-17T16:10:46.149Z,100745.19
2023-09-17T16:13:14.330Z,100743.72
2023-09-17T16:15:43.420Z,100740.34
2023-09-17T16:18:10.638Z,100729.91
2023-09-17T16:20:38.443Z,100734.34
2023-09-17T16:23:05.641Z,100730.09
2023-09-17T16:25:34.104Z,100734.34
2023-09-17T16:28:03.126Z,100724.78
2023-09-17T16:30:30.547Z,100723.75
2023-09-17T16:32:58.491Z,100715.69
2023-09-17T16:35:25.848Z,100711.31
2023-09-17T16:37:54.763Z,100713.13
2023-09-17T16:40:22.821Z,100698.91
2023-09-17T16:43:05.734Z,100700.03
2023-09-17T16:45:38.234Z,100702.28
2023-09-17T16:48:06.250Z,100697.63
2023-09-17T16:50:33.945Z,100690.53
2023-09-17T16:53:01.359Z,100686.06
2023-09-17T16:55:29.381Z,100681.72
2023-09-17T16:57:56.728Z,100670.03
2023-09-17T17:00:25.715Z,100661.00
2023-09-17T17:02:53.260Z,100657.28
2023-09-17T17:05:21.100Z,100657.28
2023-09-17T17:07:48.755Z,100652.72
2023-09-17T17:10:16.427Z,100649.84
2023-09-17T17:12:43.981Z,100647.94
2023-09-17T17:15:12.244Z,100637.53
2023-09-17T17:17:39.926Z,100640.94
2023-09-17T17:20:08.451Z,100635.63
2023-09-17T17:22:49.908Z,100626.69
2023-09-17T17:25:21.121Z,100633.91
2023-09-17T17:27:50.000Z,100627.66
2023-09-17T17:30:17.368Z,100620.63
2023-09-17T17:32:46.677Z,100619.69
2023-09-17T17:35:16.249Z,100613.41
2023-09-17T17:37:45.317Z,100611.38
2023-09-17T17:40:12.664Z,100608.53
2023-09-17T17:42:39.926Z,100606.72
2023-09-17T17:45:08.255Z,100603.34
2023-09-17T17:47:35.568Z,100604.16
2023-09-17T17:50:02.985Z,100605.00
2023-09-17T17:52:30.328Z,100594.38
2023-09-17T17:54:58.597Z,100589.06
2023-09-17T17:57:26.013Z,100592.47
2023-09-17T17:59:53.189Z,100592.25
2023-09-17T18:02:20.436Z,100585.03
2023-09-17T18:04:50.533Z,100570.06
2023-09-17T18:07:17.906Z,100579.72
2023-09-17T18:09:46.361Z,100568.88
2023-09-17T18:12:14.492Z,100562.53
2023-09-17T18:14:42.468Z,100561.47
2023-09-17T18:17:10.008Z,100560.38
2023-09-17T18:19:37.546Z,100556.56
2023-09-17T18:22:05.495Z,100552.97
2023-09-17T18:24:33.023Z,100551.69
2023-09-17T18:27:00.377Z,100549.78
2023-09-17T18:29:32.035Z,100552.44
2023-09-17T18:31:59.727Z,100533.81
2023-09-17T18:34:29.058Z,100546.91
2023-09-17T18:36:57.953Z,100537.00
2023-09-17T18:39:26.579Z,100534.97
2023-09-17T18:41:54.513Z,100532.06
2023-09-17T18:44:22.073Z,100537.28
2023-09-17T18:46:56.769Z,100525.59
2023-09-17T18:49:34.866Z,100520.16
2023-09-17T18:52:06.298Z,100513.66
2023-09-17T18:54:40.114Z,100517.19
2023-09-17T18:57:10.000Z,100513.53
2023-09-17T18:59:38.632Z,100504.72
2023-09-17T19:02:06.629Z,100509.06
2023-09-17T19:04:36.839Z,100504.41
2023-09-17T19:07:04.643Z,100494.50
2023-09-17T19:09:33.509Z,100500.88
2023-09-17T19:12:05.546Z,100492.69
2023-09-17T19:14:37.165Z,100491.41
2023-09-17T19:17:09.331Z,100488.72
2023-09-17T19:19:37.374Z,100482.84
2023-09-17T19:22:10.770Z,100486.16
2023-09-17T19:24:38.741Z,100476.16
2023-09-17T19:27:07.370Z,100474.22
2023-09-17T19:29:36.040Z,100471.78
2023-09-17T19:32:05.469Z,100467.19
2023-09-17T19:34:35.187Z,100464.53
2023-09-17T19:37:03.257Z,100461.88
2023-09-17T19:39:40.652Z,100456.56
2023-09-17T19:42:12.755Z,100456.56
2023-09-17T19:44:42.154Z,100457.41
2023-09-17T19:47:11.759Z,100452.09
2023-09-17T19:49:40.993Z,100455.63
2023-09-17T19:52:08.654Z,100450.28
2023-09-17T19:54:36.468Z,100448.59
2023-09-17T19:57:06.143Z,100442.44
2023-09-17T19:59:34.620Z,100435.41
2023-09-17T20:02:02.990Z,100429.75
2023-09-17T20:04:32.851Z,100438.50
2023-09-17T20:07:02.452Z,100422.97
2023-09-17T20:09:32.667Z,100419.34
2023-09-17T20:12:01.255Z,100416.81
2023-09-17T20:14:29.485Z,100414.88
2023-09-17T20:16:57.583Z,100403.53
2023-09-17T20:19:25.415Z,100401.94
2023-09-17T20:21:53.303Z,100388.53
2023-09-17T20:24:22.196Z,100393.25
2023-09-17T20:26:49.383Z,100390.44
2023-09-17T20:29:16.757Z,100378.75
2023-09-17T20:31:44.194Z,100381.19
2023-09-17T20:34:16.333Z,100367.03
2023-09-17T20:36:44.619Z,100375.75
2023-09-17T20:39:16.004Z,100363.41
2023-09-17T20:41:46.937Z,100356.31
2023-09-17T20:44:14.490Z,100358.09
2023-09-17T20:46:42.286Z,100345.88
2023-09-17T20:49:11.059Z,100345.66
2023-09-17T20:51:38.534Z,100341.19
2023-09-17T20:54:07.947Z,100335.25
2023-09-17T20:56:36.008Z,100321.47
2023-09-17T20:59:03.630Z,100318.19
2023-09-17T21:01:31.016Z,100313.09
2023-09-17T21:03:58.487Z,100309.56
2023-09-17T21:06:26.262Z,100301.59
2023-09-17T21:08:54.050Z,100300.44
2023-09-17T21:11:21.615Z,100298.72
2023-09-17T21:13:49.077Z,100297.78
2023-09-17T21:16:17.857Z,100293.41
2023-09-17T21:18:53.489Z,100297.59
2023-09-17T21:21:35.779Z,100294.66
2023-09-17T21:24:12.995Z,100297.78
2023-09-17T21:26:42.654Z,100291.72
2023-09-17T21:29:13.299Z,100284.69
2023-09-17T21:31:44.176Z,100282.41
2023-09-17T21:34:15.992Z,100272.00
2023-09-17T21:36:45.149Z,100264.13
2023-09-17T21:39:14.559Z,100261.59
2023-09-17T21:41:43.662Z,100255.66
2023-09-17T21:44:11.599Z,100254.91
2023-09-17T21:46:39.103Z,100238.97
2023-09-17T21:49:06.605Z,100234.63
2023-09-17T21:51:34.714Z,100234.03
2023-09-17T21:54:02.832Z,100227.84
2023-09-17T21:56:30.567Z,100226.28
2023-09-17T21:58:58.027Z,100220.25
2023-09-17T22:01:28.239Z,100217.59
2023-09-17T22:03:56.625Z,100205.38
2023-09-17T22:06:26.834Z,100186.91
2023-09-17T22:08:54.816Z,100178.94
2023-09-17T22:11:23.967Z,100168.44
2023-09-17T22:13:51.383Z,100166.59
2023-09-17T22:16:18.665Z,100163.22
2023-09-17T22:18:46.957Z,100153.69
2023-09-17T22:21:14.494Z,100147.72
2023-09-17T22:23:42.001Z,100140.63
2023-09-17T22:26:10.418Z,100132.78
2023-09-17T22:28:42.429Z,100128.44
2023-09-17T22:31:17.285Z,100124.91
2023-09-17T22:33:46.283Z,100111.06
2023-09-17T22:36:14.194Z,100105.50
2023-09-17T22:38:43.987Z,100088.84
2023-09-17T22:41:19.873Z,100087.16
2023-09-17T22:43:49.944Z,100094.13
2023-09-17T22:46:18.335Z,100088.09
2023-09-17T22:48:56.123Z,100083.78
2023-09-17T22:51:24.796Z,100079.19
2023-09-17T22:53:54.844Z,100074.13
2023-09-17T22:56:22.156Z,100067.84
2023-09-17T22:58:49.637Z,100065.28
2023-09-17T23:01:21.289Z,100075.91
2023-09-17T23:03:48.640Z,100068.91
2023-09-17T23:06:15.642Z,100061.06
2023-09-17T23:08:43.427Z,100071.69
2023-09-17T23:11:11.024Z,100063.00
2023-09-17T23:13:38.037Z,100058.78
2023-09-17T23:16:05.778Z,100050.69
2023-09-17T23:18:34.183Z,100048.03
2023-09-17T23:21:05.186Z,100053.47
2023-09-17T23:23:32.853Z,100042.00
2023-09-17T23:26:02.873Z,100038.47
2023-09-17T23:28:34.618Z,100033.31
2023-09-17T23:31:07.915Z,100021.84
2023-09-17T23:33:35.228Z,100010.38
2023-09-17T23:36:05.577Z,100005.06
2023-09-17T23:38:32.742Z,99995.28
2023-09-17T23:40:59.941Z,99992.75
2023-09-17T23:43:27.168Z,99983.97
2023-09-17T23:45:54.258Z,99976.09
2023-09-17T23:48:21.324Z,99962.81
2023-09-17T23:50:51.941Z,99950.53
2023-09-17T23:53:19.069Z,99940.75
2023-09-17T23:55:49.690Z,99930.13
2023-09-17T23:58:18.277Z,99923.16
